Time;durP1;ratioP1;P1;durP2;ratioP2;P2;SDS_P1;SDS_P2;PMS_P1;PMS_P2;Temp;Humidity;BMP_temperature;BMP_pressure;BME280_temperature;BME280_humidity;BME280_pressure;Samples;Min_cycle;Max_cycle;Signal;HPM_P1;HPM_P2
2023/04/12 00:01:50;;;;;;;89.95;82.72;;;;;;;7.49;72.80;99542.20;1715732;83;25581;-48
2023/04/12 00:04:17;;;;;;;94.03;85.95;;;;;;;7.50;72.81;99541.67;1697289;83;25579;-48
2023/04/12 00:06:47;;;;;;;92.88;85.35;;;;;;;7.54;72.95;99550.71;1710926;83;25552;-48
2023/04/12 00:09:15;;;;;;;91.82;83.72;;;;;;;7.55;72.86;99554.44;1711663;83;28219;-50
2023/04/12 00:11:42;;;;;;;88.95;81.57;;;;;;;7.56;73.30;99556.58;1716098;83;25383;-50
2023/04/12 00:14:09;;;;;;;92.82;84.52;;;;;;;7.55;73.56;99545.03;1712139;83;25615;-48
2023/04/12 00:16:38;;;;;;;91.67;84.07;;;;;;;7.58;74.36;99543.07;1715333;83;25423;-48
2023/04/12 00:19:06;;;;;;;91.42;83.82;;;;;;;7.60;74.79;99540.08;1713940;83;25549;-51
2023/04/12 00:21:32;;;;;;;91.25;83.87;;;;;;;7.60;74.39;99542.20;1712912;83;27563;-49
2023/04/12 00:24:00;;;;;;;91.67;83.65;;;;;;;7.61;74.68;99537.61;1713521;83;27268;-48
2023/04/12 00:26:27;;;;;;;91.65;83.70;;;;;;;7.60;74.91;99536.83;1714182;83;25560;-48
2023/04/12 00:28:54;;;;;;;89.67;82.17;;;;;;;7.60;74.67;99530.66;1714348;83;25498;-47
2023/04/12 00:31:22;;;;;;;90.67;83.12;;;;;;;7.58;74.73;99530.96;1713692;83;25611;-48
2023/04/12 00:33:49;;;;;;;90.07;82.65;;;;;;;7.56;75.23;99531.01;1712024;83;27075;-47
2023/04/12 00:36:16;;;;;;;91.82;83.72;;;;;;;7.55;75.14;99534.81;1711997;83;25913;-47
2023/04/12 00:38:44;;;;;;;93.82;85.80;;;;;;;7.55;75.14;99534.81;1711043;83;25483;-48
2023/04/12 00:41:14;;;;;;;94.35;86.22;;;;;;;7.51;75.53;99525.22;1710842;83;27661;-48
2023/04/12 00:43:41;;;;;;;43.70;39.73;;;;;;;;;;1712546;83;25641;-49
2023/04/12 00:46:08;;;;;;;61.87;56.00;;;;;;;;;;1712865;83;27550;-48
2023/04/12 00:48:36;;;;;;;64.00;58.10;;;;;;;;;;1717111;82;25603;-49
2023/04/12 00:51:05;;;;;;;88.67;80.32;;;;;;;;;;1721354;83;25391;-49
2023/04/12 00:53:33;;;;;;;62.88;57.03;;;;;;;;;;1721307;83;30377;-48
2023/04/12 00:56:00;;;;;;;85.90;78.17;;;;;;;;;;1717371;83;25449;-48
2023/04/12 00:58:28;;;;;;;38.08;34.95;;;;;;;;;;1716046;83;27584;-49
2023/04/12 01:00:54;;;;;;;86.63;78.77;;;;;;;;;;1717032;82;25596;-49
2023/04/12 01:03:22;;;;;;;62.50;56.70;;;;;;;;;;1721054;83;34649;-50
2023/04/12 01:06:08;;;;;;;37.67;34.43;;;;;;;;;;1716854;83;25626;-48
2023/04/12 01:08:44;;;;;;;85.25;77.90;;;;;;;;;;1721198;83;25549;-50
2023/04/12 01:11:29;;;;;;;62.97;57.37;;;;;;;;;;1721198;82;27501;-48
2023/04/12 01:14:08;;;;;;;64.83;58.43;;;;;;;;;;1702679;83;25461;-48
2023/04/12 01:16:44;;;;;;;66.57;60.03;;;;;;;;;;1716875;82;25437;-48
2023/04/12 01:19:20;;;;;;;63.40;57.03;;;;;;;;;;1720577;83;27821;-49
2023/04/12 01:21:59;;;;;;;63.73;58.33;;;;;;;;;;1660372;86;25512;-48
2023/04/12 01:24:44;;;;;;;68.17;62.13;;;;;;;;;;1577612;90;28498;-48
2023/04/12 01:27:16;;;;;;;67.70;61.40;;;;;;;;;;1577741;90;25718;-50
2023/04/12 01:29:45;;;;;;;83.43;76.53;;;;;;;;;;1577099;90;25655;-49
2023/04/12 01:32:12;;;;;;;84.10;76.75;;;;;;;;;;1557893;90;25678;-48
2023/04/12 01:34:40;;;;;;;86.47;78.80;;;;;;;;;;1577790;90;25478;-48
2023/04/12 01:37:06;;;;;;;85.03;77.63;;;;;;;;;;1577799;90;28161;-48
2023/04/12 01:39:33;;;;;;;82.77;75.90;;;;;;;;;;1577666;90;30342;-49
2023/04/12 01:41:59;;;;;;;84.47;76.83;;;;;;;;;;1577749;90;25468;-47
2023/04/12 01:44:25;;;;;;;87.03;79.13;;;;;;;;;;1577727;90;32312;-49
2023/04/12 01:46:53;;;;;;;83.63;75.87;;;;;;;;;;1584478;89;25639;-47
2023/04/12 01:49:21;;;;;;;57.85;52.78;;;;;;;;;;1612960;89;28177;-50
2023/04/12 01:51:55;;;;;;;35.53;32.27;;;;;;;;;;1591693;89;25647;-48
2023/04/12 01:54:30;;;;;;;62.00;56.23;;;;;;;;;;1593230;89;25648;-47
2023/04/12 01:57:01;;;;;;;65.40;60.00;;;;;;;;;;1612794;89;25622;-48
2023/04/12 01:59:31;;;;;;;63.08;57.27;;;;;;;;;;1607763;88;25730;-49
2023/04/12 02:01:57;;;;;;;62.83;57.13;;;;;;;;;;1681392;83;27502;-48
2023/04/12 02:04:26;;;;;;;39.77;36.27;;;;;;;;;;1715830;83;29715;-51
2023/04/12 02:06:55;;;;;;;55.57;50.60;;;;;;;;;;1707790;83;25611;-49
2023/04/12 02:09:22;;;;;;;;;;;;;;;;;;1718434;83;25505;-51
2023/04/12 02:11:49;;;;;;;94.63;86.83;;;;;;;;;;1713410;83;25575;-49
2023/04/12 02:14:17;;;;;;;28.17;14.25;;;;;;;;;;1712312;83;27536;-49
2023/04/12 02:16:46;;;;;;;25.70;14.15;;;;;;;;;;1713208;83;25396;-49
2023/04/12 02:19:13;;;;;;;29.00;15.33;;;;;;;;;;1712691;83;25529;-48
2023/04/12 02:21:44;;;;;;;29.57;15.18;;;;;;;;;;1714578;83;25565;-50
2023/04/12 02:24:11;;;;;;;63.05;56.90;;;;;;;;;;1700351;83;25536;-51
2023/04/12 02:26:39;;;;;;;57.83;52.43;;;;;;;;;;1715865;82;27494;-50
2023/04/12 02:29:07;;;;;;;33.53;30.70;;;;;;;;;;1711632;83;25615;-49
2023/04/12 02:31:37;;;;;;;60.87;54.97;;;;;;;;;;1717689;83;25623;-48
2023/04/12 02:34:05;;;;;;;63.60;57.73;;;;;;;;;;1719504;83;25475;-48
2023/04/12 02:36:34;;;;;;;58.70;53.45;;;;;;;;;;1717089;83;25431;-49
2023/04/12 02:39:00;;;;;;;5.28;5.08;;;;;;;;;;1712259;83;27508;-47
2023/04/12 02:41:28;;;;;;;7.33;6.93;;;;;;;;;;1713585;83;30015;-50
2023/04/12 02:43:54;;;;;;;4.67;4.47;;;;;;;;;;1712867;83;25446;-47
2023/04/12 02:46:23;;;;;;;5.50;5.30;;;;;;;;;;1714697;82;32147;-50
2023/04/12 02:48:50;;;;;;;5.20;5.00;;;;;;;;;;1714381;82;25587;-50
2023/04/12 02:51:16;;;;;;;5.40;5.20;;;;;;;;;;1711048;83;27548;-52
2023/04/12 02:53:43;;;;;;;5.97;5.73;;;;;;;;;;1714000;83;25485;-49
2023/04/12 02:56:10;;;;;;;5.60;5.40;;;;;;;;;;1711192;83;25513;-50
2023/04/12 02:58:38;;;;;;;6.73;6.43;;;;;;;;;;1710988;83;25967;-47
2023/04/12 03:01:11;;;;;;;7.70;7.23;;;;;;;;;;1711007;83;25419;-48
2023/04/12 03:03:38;;;;;;;6.30;6.00;;;;;;;;;;1713825;83;27472;-49
2023/04/12 03:06:12;;;;;;;6.63;6.33;;;;;;;;;;1711314;82;25619;-48
2023/04/12 03:08:37;;;;;;;6.33;6.03;;;;;;;;;;1710527;83;25395;-49
2023/04/12 03:11:06;;;;;;;7.12;6.83;;;;;;;;;;1715724;83;25612;-48
2023/04/12 03:13:32;;;;;;;6.47;6.20;;;;;;;;;;1714627;83;25417;-51
2023/04/12 03:15:59;;;;;;;7.73;7.23;;;;;;;;;;1701734;83;32678;-48
2023/04/12 03:18:26;;;;;;;7.60;7.20;;;;;;;;;;1721047;83;25553;-49
2023/04/12 03:20:53;;;;;;;5.97;5.73;;;;;;;;;;1716423;83;34743;-48
2023/04/12 03:23:19;;;;;;;6.80;6.50;;;;;;;;;;1701343;83;25577;-50
2023/04/12 03:25:46;;;;;;;5.20;5.00;;;;;;;;;;1710988;83;25591;-47
2023/04/12 03:28:13;;;;;;;6.20;5.93;;;;;;;;;;1711378;83;27547;-48
2023/04/12 03:30:41;;;;;;;4.90;4.70;;;;;;;;;;1713842;83;25496;-48
2023/04/12 03:33:08;;;;;;;6.80;6.50;;;;;;;;;;1711266;83;25659;-49
2023/04/12 03:35:35;;;;;;;4.10;3.97;;;;;;;;;;1712282;83;25577;-50
2023/04/12 03:38:02;;;;;;;6.50;6.20;;;;;;;;;;1715633;83;25508;-48
2023/04/12 03:40:28;;;;;;;9.30;8.77;;;;;;;;;;1714267;83;27405;-49
2023/04/12 03:42:54;;;;;;;57.53;52.47;;;;;;;;;;1714146;83;25551;-50
2023/04/12 03:45:20;;;;;;;86.97;78.43;;;;;;;;;;1713876;83;25547;-51
2023/04/12 03:47:46;;;;;;;84.17;76.27;;;;;;;;;;1702716;83;25464;-51
2023/04/12 03:50:13;;;;;;;87.30;79.27;;;;;;;;;;1699516;83;25473;-49
2023/04/12 03:52:40;;;;;;;61.90;55.23;;;;;;;;;;1711880;83;27588;-48
2023/04/12 03:55:08;;;;;;;66.50;59.70;;;;;;;;;;1712488;83;25470;-48
2023/04/12 03:57:35;;;;;;;66.80;60.98;;;;;;;;;;1714523;83;25421;-49
2023/04/12 04:00:07;;;;;;;94.37;85.07;;;;;;;;;;1712879;83;26077;-48
2023/04/12 04:02:33;;;;;;;5.40;5.20;;;;;;;;;;1712579;83;25612;-48
2023/04/12 04:05:01;;;;;;;65.47;59.03;;;;;;;;;;1700877;83;28471;-48
2023/04/12 04:07:27;;;;;;;5.50;5.30;;;;;;;;;;1714158;83;25555;-49
2023/04/12 04:09:54;;;;;;;5.30;5.10;;;;;;;;;;1706614;83;34762;-49
2023/04/12 04:12:21;;;;;;;6.20;5.93;;;;;;;;;;1712906;83;26138;-49
2023/04/12 04:14:47;;;;;;;8.17;7.77;;;;;;;;;;1713415;83;25389;-48
2023/04/12 04:17:13;;;;;;;7.20;6.83;;;;;;;;;;1715259;83;27561;-48
2023/04/12 04:19:41;;;;;;;9.03;8.53;;;;;;;;;;1713151;82;29873;-50
2023/04/12 04:22:08;;;;;;;10.33;9.37;;;;;;;;;;1710958;83;25570;-49
2023/04/12 04:24:37;;;;;;;5.47;5.28;;;;;;;;;;1714385;83;25466;-48
2023/04/12 04:27:04;;;;;;;13.30;8.70;;;;;;;;;;1711671;83;25418;-49
2023/04/12 04:29:30;;;;;;;94.90;86.70;;;;;;;;;;1711489;83;27655;-49
2023/04/12 04:31:58;;;;;;;101.20;91.85;;;;;;;;;;1711594;83;27198;-49
2023/04/12 04:34:24;;;;;;;103.15;93.58;;;;;;;;;;1711709;83;25526;-49
2023/04/12 04:36:51;;;;;;;99.70;90.95;;;;;;;;;;1713322;83;25629;-48
2023/04/12 04:39:18;;;;;;;12.55;11.68;;;;;;;;;;1713934;83;25534;-48
2023/04/12 04:41:45;;;;;;;86.07;78.07;;;;;;;;;;1712992;83;32796;-48
2023/04/12 04:44:13;;;;;;;7.58;7.17;;;;;;;;;;1712746;83;27181;-48
2023/04/12 04:46:41;;;;;;;6.75;6.50;;;;;;;;;;1712141;83;25439;-51
2023/04/12 04:49:07;;;;;;;7.03;6.72;;;;;;;;;;1693605;82;25474;-48
2023/04/12 04:51:33;;;;;;;10.03;9.53;;;;;;;;;;1683133;85;25615;-49
2023/04/12 04:53:59;;;;;;;7.20;6.90;;;;;;;;;;1683090;84;27537;-50
2023/04/12 04:56:27;;;;;;;6.87;6.57;;;;;;;;;;1683083;85;25427;-50
2023/04/12 04:58:54;;;;;;;6.70;6.40;;;;;;;;;;1683162;85;25633;-50
2023/04/12 05:01:24;;;;;;;8.83;8.40;;;;;;;;;;1683283;85;25688;-53
2023/04/12 05:03:48;;;;;;;6.20;5.92;;;;;;;;;;1682952;85;25388;-50
2023/04/12 05:06:15;;;;;;;7.67;7.27;;;;;;;;;;1683196;85;27479;-50
2023/04/12 05:08:41;;;;;;;9.27;8.77;;;;;;;;;;1683151;85;29854;-51
2023/04/12 05:11:08;;;;;;;7.30;7.00;;;;;;;;;;1683246;84;25607;-49
2023/04/12 05:13:35;;;;;;;7.63;7.23;;;;;;;;;;1683215;84;26182;-50
2023/04/12 05:16:08;;;;;;;7.58;7.17;;;;;;;;;;1683423;84;25492;-51
2023/04/12 05:18:35;;;;;;;8.40;7.97;;;;;;;;;;1680098;85;27549;-53
2023/04/12 05:21:05;;;;;;;6.57;6.27;;;;;;;;;;1683125;85;25531;-50
2023/04/12 05:23:39;;;;;;;7.00;6.70;;;;;;;;;;1683274;85;25406;-53
2023/04/12 05:26:04;;;;;;;12.23;11.60;;;;;;;;;;1682475;85;25723;-56
2023/04/12 05:28:31;;;;;;;9.33;8.83;;;;;;;;;;1683276;84;25311;-54
2023/04/12 05:30:59;;;;;;;65.50;59.87;;;;;;;;;;1683231;85;27348;-51
2023/04/12 05:33:27;;;;;;;108.60;98.83;;;;;;;;;;1683207;84;25495;-58
2023/04/12 05:35:54;;;;;;;6.08;5.85;;;;;;;;;;1683369;85;25481;-54
2023/04/12 05:38:22;;;;;;;6.17;5.97;;;;;;;;;;1683294;85;25555;-51
2023/04/12 05:40:50;;;;;;;8.10;7.70;;;;;;;;;;1682827;85;25605;-53
2023/04/12 05:43:18;;;;;;;5.60;5.40;;;;;;;;;;1683415;85;27413;-51
2023/04/12 05:45:47;;;;;;;4.87;4.67;;;;;;;;;;1683330;84;25379;-53
2023/04/12 05:48:14;;;;;;;59.90;54.70;;;;;;;;;;1664601;83;25397;-53
2023/04/12 05:50:54;;;;;;;13.28;12.35;;;;;;;;;;1712348;83;25478;-54
2023/04/12 05:53:21;;;;;;;6.47;6.27;;;;;;;;;;1711988;83;25365;-54
2023/04/12 05:55:48;;;;;;;9.37;8.87;;;;;;;;;;1708059;82;27412;-55
2023/04/12 05:58:16;;;;;;;9.13;8.63;;;;;;;;;;1681047;84;25588;-52
2023/04/12 06:00:44;;;;;;;6.08;5.85;;;;;;;;;;1710236;83;25434;-53
2023/04/12 06:03:11;;;;;;;5.60;5.40;;;;;;;;;;1720592;83;25598;-51
2023/04/12 06:05:39;;;;;;;5.77;5.57;;;;;;;;;;1710847;83;25523;-52
2023/04/12 06:08:09;;;;;;;5.70;5.50;;;;;;;;;;1711056;83;27424;-55
2023/04/12 06:10:36;;;;;;;5.80;5.60;;;;;;;;;;1720697;83;25563;-55
2023/04/12 06:13:03;;;;;;;6.13;5.87;;;;;;;;;;1711068;83;25459;-50
2023/04/12 06:15:30;;;;;;;9.43;8.93;;;;;;;;;;1709643;83;25555;-52
2023/04/12 06:17:59;;;;;;;6.60;6.30;;;;;;;;;;1711271;83;25484;-50
2023/04/12 06:20:26;;;;;;;7.40;7.05;;;;;;;;;;1710773;83;27995;-49
2023/04/12 06:22:53;;;;;;;6.33;6.03;;;;;;;;;;1710914;83;25480;-52
2023/04/12 06:25:21;;;;;;;15.33;10.10;;;;;;;;;;1711033;83;25465;-51
2023/04/12 06:27:49;;;;;;;8.00;7.60;;;;;;;;;;1710907;83;25690;-52
2023/04/12 06:30:17;;;;;;;7.40;7.03;;;;;;;;;;1720576;83;25541;-51
2023/04/12 06:32:44;;;;;;;7.50;6.45;;;;;;;;;;1711220;83;27382;-50
2023/04/12 06:35:11;;;;;;;64.17;57.20;;;;;;;;;;1710925;83;25735;-52
2023/04/12 06:37:38;;;;;;;7.33;6.93;;;;;;;;;;1716314;83;25462;-53
2023/04/12 06:40:07;;;;;;;8.77;8.37;;;;;;;;;;1712077;83;25542;-52
2023/04/12 06:42:35;;;;;;;5.22;5.03;;;;;;;;;;1711095;83;25417;-53
2023/04/12 06:45:03;;;;;;;58.30;52.05;;;;;;;;;;1711137;83;27397;-50
2023/04/12 06:47:31;;;;;;;104.95;94.67;;;;;;;;;;1710675;83;25663;-53
2023/04/12 06:49:58;;;;;;;83.33;75.53;;;;;;;;;;1711426;83;25309;-55
2023/04/12 06:52:26;;;;;;;74.00;64.87;;;;;;;;;;1711100;83;25519;-52
2023/04/12 06:54:54;;;;;;;95.80;86.08;;;;;;;;;;1690093;83;25490;-53
2023/04/12 06:57:21;;;;;;;50.27;28.23;;;;;;;;;;1713816;83;27921;-51
2023/04/12 06:59:50;;;;;;;100.30;90.72;;;;;;;;;;1713327;83;25521;-50
2023/04/12 07:02:17;;;;;;;104.92;95.25;;;;;;;;;;1712412;83;25563;-49
2023/04/12 07:04:44;;;;;;;102.30;91.95;;;;;;;;;;1713154;83;26519;-50
2023/04/12 07:07:11;;;;;;;59.10;51.85;;;;;;;;;;1692562;83;25319;-49
2023/04/12 07:09:38;;;;;;;64.58;57.40;;;;;;;;;;1713392;83;27417;-51
2023/04/12 07:12:06;;;;;;;105.90;96.22;;;;;;;;;;1712978;83;25365;-49
2023/04/12 07:14:33;;;;;;;95.32;86.17;;;;;;;;;;1713836;83;25317;-52
2023/04/12 07:17:00;;;;;;;97.60;88.33;;;;;;;;;;1713159;83;25470;-50
2023/04/12 07:19:30;;;;;;;102.75;92.10;;;;;;;;;;1713668;83;25568;-54
2023/04/12 07:21:57;;;;;;;63.65;44.85;;;;;;;;;;1698496;83;27893;-49
2023/04/12 07:24:24;;;;;;;49.13;25.40;;;;;;;;;;1718582;83;25460;-50
2023/04/12 07:26:53;;;;;;;49.73;25.00;;;;;;;;;;1718691;83;25360;-53
2023/04/12 07:29:21;;;;;;;55.23;39.10;;;;;;;;;;1718666;83;25678;-55
2023/04/12 07:31:48;;;;;;;102.82;93.52;;;;;;;;;;1718730;83;25334;-52
2023/04/12 07:34:14;;;;;;;103.30;93.50;;;;;;;;;;1717227;83;27276;-52
2023/04/12 07:36:43;;;;;;;111.03;100.02;;;;;;;;;;1709646;83;25483;-51
2023/04/12 07:39:11;;;;;;;96.78;85.30;;;;;;;;;;1708834;84;25527;-53
2023/04/12 07:41:38;;;;;;;104.45;93.72;;;;;;;;;;1708793;84;27649;-54
2023/04/12 07:44:05;;;;;;;79.82;71.53;;;;;;;;;;1708734;84;25596;-53
2023/04/12 07:46:32;;;;;;;116.05;105.52;;;;;;;;;;1708703;83;28051;-52
2023/04/12 07:48:59;;;;;;;65.97;59.48;;;;;;;;;;1708634;84;25604;-53
2023/04/12 07:51:26;;;;;;;10.53;10.03;;;;;;;;;;1708685;84;25295;-52
2023/04/12 07:53:53;;;;;;;7.22;6.90;;;;;;;;;;1708676;84;25699;-51
2023/04/12 07:56:20;;;;;;;66.35;59.67;;;;;;;;;;1712005;83;25632;-54
2023/04/12 07:58:47;;;;;;;72.30;64.43;;;;;;;;;;1716058;83;29688;-53
2023/04/12 08:01:14;;;;;;;5.85;5.65;;;;;;;;;;1716244;83;25303;-55
2023/04/12 08:03:42;;;;;;;5.50;5.30;;;;;;;;;;1716446;83;25367;-51
2023/04/12 08:06:09;;;;;;;73.23;62.77;;;;;;;;;;1711368;83;27731;-51
2023/04/12 08:08:35;;;;;;;78.30;62.87;;;;;;;;;;1710566;83;25332;-52
2023/04/12 08:11:05;;;;;;;6.03;5.80;;;;;;;;;;1716322;83;27431;-53
2023/04/12 08:13:33;;;;;;;5.50;5.30;;;;;;;;;;1716292;83;25594;-54
2023/04/12 08:16:00;;;;;;;5.87;5.67;;;;;;;;;;1716450;83;25513;-51
2023/04/12 08:18:28;;;;;;;47.20;42.40;;;;;;;;;;1695927;83;25565;-53
2023/04/12 08:20:56;;;;;;;103.97;94.40;;;;;;;;;;1716426;83;25481;-52
2023/04/12 08:23:25;;;;;;;104.87;95.25;;;;;;;;;;1716511;83;27438;-53
2023/04/12 08:26:02;;;;;;;86.78;77.47;;;;;;;;;;1716365;83;25728;-53
2023/04/12 08:28:27;;;;;;;104.75;94.42;;;;;;;;;;1715732;83;25537;-51
2023/04/12 08:30:53;;;;;;;92.95;83.37;;;;;;;;;;1716281;83;35188;-53
2023/04/12 08:33:20;;;;;;;108.27;90.67;;;;;;;;;;1716365;83;25546;-51
2023/04/12 08:35:48;;;;;;;40.28;22.67;;;;;;;;;;1716323;83;27447;-52
2023/04/12 08:38:15;;;;;;;48.80;28.32;;;;;;;;;;1716234;83;25488;-53
2023/04/12 08:40:43;;;;;;;47.80;27.98;;;;;;;;;;1716347;83;25370;-52
2023/04/12 08:43:11;;;;;;;45.60;27.10;;;;;;;;;;1716282;83;25326;-49
2023/04/12 08:45:38;;;;;;;47.30;26.52;;;;;;;;;;1716369;83;25474;-49
2023/04/12 08:48:05;;;;;;;48.00;27.95;;;;;;;;;;1719703;83;27270;-50
2023/04/12 08:50:33;;;;;;;52.83;27.85;;;;;;;;;;1728647;82;25853;-50
2023/04/12 08:53:00;;;;;;;99.22;89.55;;;;;;;;;;1728737;83;25607;-49
2023/04/12 08:55:27;;;;;;;47.40;26.40;;;;;;;;;;1728359;82;25535;-51
2023/04/12 08:57:55;;;;;;;50.28;27.60;;;;;;;;;;1728066;83;25511;-50
2023/04/12 09:00:23;;;;;;;52.43;27.03;;;;;;;;;;1728193;83;28173;-48
2023/04/12 09:02:51;;;;;;;42.53;25.27;;;;;;;;;;1727950;82;25556;-50
2023/04/12 09:05:18;;;;;;;39.70;23.57;;;;;;;;;;1727919;83;25407;-49
2023/04/12 09:07:45;;;;;;;41.75;24.80;;;;;;;;;;1728073;82;25351;-47
2023/04/12 09:10:16;;;;;;;45.10;25.35;;;;;;;;;;1728275;82;25356;-50
2023/04/12 09:12:46;;;;;;;45.90;25.30;;;;;;;;;;1724117;82;27600;-48
2023/04/12 09:15:16;;;;;;;45.28;23.65;;;;;;;;;;1727705;82;25489;-48
2023/04/12 09:17:44;;;;;;;45.20;24.35;;;;;;;;;;1728206;82;25461;-49
2023/04/12 09:20:18;;;;;;;40.40;24.02;;;;;;;;;;1727253;83;25705;-49
2023/04/12 09:22:46;;;;;;;41.80;23.67;;;;;;;;;;1728151;82;25505;-48
2023/04/12 09:25:14;;;;;;;36.20;22.22;;;;;;;;;;1728170;82;27771;-49
2023/04/12 09:27:49;;;;;;;37.78;22.45;;;;;;;;;;1727529;83;25502;-48
2023/04/12 09:30:18;;;;;;;38.15;22.45;;;;;;;;;;1728144;83;25421;-48
2023/04/12 09:32:49;;;;;;;37.40;21.85;;;;;;;;;;1728327;83;25504;-49
2023/04/12 09:35:16;;;;;;;44.48;24.55;;;;;;;;;;1728078;83;25499;-49
2023/04/12 09:37:44;;;;;;;42.73;23.50;;;;;;;;;;1728124;82;27415;-48
2023/04/12 09:40:13;;;;;;;40.63;27.85;;;;;;;;;;1728054;83;25927;-49
2023/04/12 09:42:52;;;;;;;45.58;26.10;;;;;;;;;;1728196;83;25456;-49
2023/04/12 09:45:24;;;;;;;40.73;25.48;;;;;;;;;;1727956;83;25343;-49
2023/04/12 09:47:53;;;;;;;36.88;23.87;;;;;;;;;;1727965;82;25353;-49
2023/04/12 09:50:23;;;;;;;38.75;23.95;;;;;;;;;;1728251;82;27277;-51
2023/04/12 09:52:52;;;;;;;35.68;22.98;;;;;;;;;;1727663;82;25452;-50
2023/04/12 09:55:22;;;;;;;38.73;23.87;;;;;;;;;;1727894;83;25441;-49
2023/04/12 09:57:52;;;;;;;34.78;23.42;;;;;;;;;;1727774;83;25455;-49
2023/04/12 10:00:25;;;;;;;34.65;23.30;;;;;;;;;;1728110;83;25401;-52
2023/04/12 10:02:56;;;;;;;34.10;24.02;;;;;;;;;;1728174;83;27195;-49
2023/04/12 10:05:25;;;;;;;35.48;23.47;;;;;;;;;;1727733;83;25318;-49
2023/04/12 10:07:52;;;;;;;35.00;22.58;;;;;;;;;;1727968;82;25334;-49
2023/04/12 10:10:21;;;;;;;36.25;23.77;;;;;;;;;;1728170;83;25677;-49
2023/04/12 10:12:50;;;;;;;32.20;22.27;;;;;;;;;;1687761;82;25517;-49
2023/04/12 10:15:20;;;;;;;33.35;21.60;;;;;;;;;;1728423;82;27313;-50
2023/04/12 10:17:53;;;;;;;35.45;23.20;;;;;;;;;;1727858;82;25723;-49
2023/04/12 10:20:22;;;;;;;32.10;22.70;;;;;;;;;;1727744;82;25528;-50
2023/04/12 10:22:52;;;;;;;33.88;22.75;;;;;;;;;;1727842;83;34611;-50
2023/04/12 10:25:23;;;;;;;29.15;22.17;;;;;;;;;;1728314;82;25349;-50
2023/04/12 10:27:50;;;;;;;34.85;23.50;;;;;;;;;;1728011;82;27212;-49
2023/04/12 10:30:28;;;;;;;28.20;22.32;;;;;;;;;;1728136;83;25303;-52
2023/04/12 10:33:05;;;;;;;30.65;22.02;;;;;;;;;;1728381;83;25282;-53
2023/04/12 10:35:54;;;;;;;29.45;21.25;;;;;;;;;;1728202;83;25697;-53
2023/04/12 10:38:29;;;;;;;26.45;21.68;;;;;;;;;;1711139;82;25481;-50
2023/04/12 10:41:16;;;;;;;30.77;22.55;;;;;;;;;;1727558;83;27214;-53
2023/04/12 10:43:53;;;;;;;28.60;21.57;;;;;;;;;;1728140;82;25765;-53
2023/04/12 10:46:45;;;;;;;29.65;21.25;;;;;;;;;;1704964;83;25670;-53
2023/04/12 10:49:16;;;;;;;29.07;21.57;;;;;;;;;;1728081;83;25818;-52
2023/04/12 10:52:06;;;;;;;31.35;21.80;;;;;;;;;;1728297;83;25519;-52
2023/04/12 10:54:39;;;;;;;30.43;21.82;;;;;;;;;;1728176;82;27746;-50
2023/04/12 10:57:10;;;;;;;29.63;22.42;;;;;;;;;;1725552;82;25813;-53
2023/04/12 10:59:55;;;;;;;33.75;22.15;;;;;;;;;;1720686;83;25533;-50
2023/04/12 11:02:24;;;;;;;27.22;21.77;;;;;;;;;;1723188;82;25656;-49
2023/04/12 11:05:08;;;;;;;33.85;23.70;;;;;;;;;;1723575;82;30365;-51
2023/04/12 11:07:42;;;;;;;35.55;23.00;;;;;;;;;;1723341;82;27703;-51
2023/04/12 11:10:15;;;;;;;33.23;26.45;;;;;;;;;;1723366;82;25477;-48
2023/04/12 11:12:59;;;;;;;36.95;24.77;;;;;;;;;;1723519;82;25393;-50
2023/04/12 11:15:27;;;;;;;31.20;24.50;;;;;;;;;;1723494;82;25371;-51
2023/04/12 11:17:56;;;;;;;32.05;21.97;;;;;;;;;;1704263;83;32846;-49
2023/04/12 11:20:27;;;;;;;32.70;22.80;;;;;;;;;;1683610;83;27167;-49
2023/04/12 11:22:58;;;;;;;31.70;22.58;;;;;;;;;;1722953;83;26805;-50
2023/04/12 11:25:29;;;;;;;29.85;23.18;;;;;;;;;;1705326;83;25523;-48
2023/04/12 11:28:00;;;;;;;30.25;22.35;;;;;;;;;;1723156;83;26304;-50
2023/04/12 11:30:27;;;;;;;30.75;22.98;;;;;;;;;;1723493;83;25340;-51
2023/04/12 11:32:54;;;;;;;29.72;22.82;;;;;;;;;;1723282;82;28217;-48
2023/04/12 11:35:26;;;;;;;34.18;22.85;;;;;;;;;;1704481;83;25496;-51
2023/04/12 11:37:56;;;;;;;32.15;22.98;;;;;;;;;;1705049;83;25591;-48
2023/04/12 11:40:26;;;;;;;32.93;22.93;;;;;;;;;;1716094;82;25608;-48
2023/04/12 11:42:56;;;;;;;33.08;21.73;;;;;;;;;;1723593;83;25453;-48
2023/04/12 11:45:28;;;;;;;28.10;21.20;;;;;;;;;;1722566;83;29388;-48
2023/04/12 11:47:56;;;;;;;36.10;22.07;;;;;;;;;;1723199;82;25553;-50
2023/04/12 11:50:31;;;;;;;34.98;22.17;;;;;;;;;;1723315;82;25363;-48
2023/04/12 11:53:16;;;;;;;29.50;21.05;;;;;;;;;;1723354;82;25450;-49
2023/04/12 11:55:52;;;;;;;28.20;21.48;;;;;;;;;;1723177;83;25349;-48
2023/04/12 11:58:27;;;;;;;30.82;21.50;;;;;;;;;;1723321;83;27086;-51
2023/04/12 12:00:57;;;;;;;26.77;21.50;;;;;;;;;;1723289;82;25545;-51
2023/04/12 12:03:25;;;;;;;27.67;22.10;;;;;;;;;;1723299;82;25482;-52
2023/04/12 12:05:52;;;;;;;26.35;21.50;;;;;;;;;;1723243;82;25495;-56
2023/04/12 12:08:23;;;;;;;30.35;21.62;;;;;;;;;;1723371;83;25325;-52
2023/04/12 12:10:54;;;;;;;27.05;20.88;;;;;;;;;;1723283;82;27205;-48
2023/04/12 12:13:23;;;;;;;29.02;20.30;;;;;;;;;;1723098;82;25494;-49
2023/04/12 12:15:52;;;;;;;28.32;20.88;;;;;;;;;;1723431;83;25485;-51
2023/04/12 12:18:23;;;;;;;24.75;18.32;;;;;;;;;;1723281;82;25745;-51
2023/04/12 12:20:54;;;;;;;34.70;28.12;;;;;;;;;;1723398;82;25372;-51
2023/04/12 12:23:31;;;;;;;37.40;25.20;;;;;;;;;;1723255;83;27323;-48
2023/04/12 12:26:08;;;;;;;26.57;18.30;;;;;;;;;;1723153;82;26092;-50
2023/04/12 12:28:40;;;;;;;30.15;24.02;;;;;;;;;;1723240;83;25510;-48
2023/04/12 12:31:11;;;;;;;24.67;16.82;;;;;;;;;;1723508;82;25495;-48
2023/04/12 12:33:44;;;;;;;23.32;15.60;;;;;;;;;;1723270;83;25517;-47
2023/04/12 12:36:15;;;;;;;23.15;16.42;;;;;;;;;;1723189;83;27082;-47
2023/04/12 12:38:42;;;;;;;26.52;18.32;;;;;;;;;;1715518;83;25728;-47
2023/04/12 12:41:26;;;;;;;23.50;17.25;;;;;;;;;;1723296;82;25580;-46
2023/04/12 12:44:01;;;;;;;31.93;19.00;;;;;;;;;;1723233;82;25817;-48
2023/04/12 12:46:36;;;;;;;21.12;15.50;;;;;;;;;;1723278;82;25378;-48
2023/04/12 12:49:06;;;;;;;18.02;13.95;;;;;;;;;;1723169;83;28159;-48
2023/04/12 12:51:34;;;;;;;20.62;15.72;;;;;;;;;;1723233;82;25317;-48
2023/04/12 12:54:09;;;;;;;25.20;15.23;;;;;;;;;;1723163;83;25425;-47
2023/04/12 12:56:42;;;;;;;22.55;14.55;;;;;;;;;;1723056;83;25508;-47
2023/04/12 12:59:09;;;;;;;18.60;15.05;;;;;;;;;;1723169;83;25447;-47
2023/04/12 13:01:36;;;;;;;17.90;14.23;;;;;;;;;;1723079;83;27301;-47
2023/04/12 13:04:05;;;;;;;19.67;15.08;;;;;;;;;;1723083;83;25406;-48
2023/04/12 13:06:34;;;;;;;18.48;13.68;;;;;;;;;;1723149;82;25459;-46
2023/04/12 13:09:05;;;;;;;18.65;13.80;;;;;;;;;;1723199;82;25602;-48
2023/04/12 13:11:33;;;;;;;15.43;12.03;;;;;;;;;;1723177;83;25380;-50
2023/04/12 13:14:04;;;;;;;22.87;12.88;;;;;;;;;;1723215;83;27207;-48
2023/04/12 13:16:35;;;;;;;17.75;12.35;;;;;;;;;;1723074;83;25659;-52
2023/04/12 13:19:02;;;;;;;18.82;12.78;;;;;;;;;;1723166;83;25745;-50
2023/04/12 13:21:32;;;;;;;19.65;14.58;;;;;;;;;;1707191;83;25714;-51
2023/04/12 13:24:00;;;;;;;19.23;14.47;;;;;;;;;;1723389;83;25472;-51
2023/04/12 13:26:27;;;;;;;16.55;13.83;;;;;;;;;;1723647;83;27192;-52
2023/04/12 13:29:01;;;;;;;18.57;14.07;;;;;;;;;;1723218;83;25445;-50
2023/04/12 13:31:29;;;;;;;16.35;13.03;;;;;;;;;;1723309;82;25515;-53
2023/04/12 13:33:59;;;;;;;15.88;12.63;;;;;;;;;;1723170;83;25438;-53
2023/04/12 13:36:27;;;;;;;18.27;13.08;;;;;;;;;;1717135;83;25280;-51
2023/04/12 13:40:46;;;;;;;18.87;12.80;;;;;;;20.85;40.63;99430.08;1821319;77;25581;-51
2023/04/12 13:43:13;;;;;;;18.15;12.55;;;;;;;20.72;40.31;99413.84;1782667;80;25535;-48
2023/04/12 13:45:41;;;;;;;18.60;11.95;;;;;;;20.35;39.99;99420.63;1782807;79;27341;-51
2023/04/12 13:48:09;;;;;;;15.08;11.00;;;;;;;19.78;39.86;99424.22;1782610;80;26022;-49
2023/04/12 13:50:36;;;;;;;14.87;11.83;;;;;;;19.45;40.46;99416.55;1782617;80;25599;-49
2023/04/12 13:53:03;;;;;;;14.15;10.72;;;;;;;19.06;40.64;99409.63;1782487;80;25449;-49
2023/04/12 13:55:29;;;;;;;17.70;11.83;;;;;;;18.80;41.25;99416.38;1782619;80;25388;-48
2023/04/12 13:57:56;;;;;;;18.12;11.15;;;;;;;18.63;41.42;99411.02;1760511;80;28004;-48
2023/04/12 14:00:23;;;;;;;14.95;11.80;;;;;;;18.39;41.75;99406.20;1782470;80;25772;-48
2023/04/12 14:02:50;;;;;;;14.87;10.72;;;;;;;18.41;42.40;99401.92;1782635;80;25638;-49
2023/04/12 14:05:16;;;;;;;18.67;10.85;;;;;;;18.63;42.99;99406.91;1782573;80;25557;-50
2023/04/12 14:07:43;;;;;;;14.83;11.08;;;;;;;18.98;43.28;99407.45;1782613;79;25425;-49
2023/04/12 14:10:10;;;;;;;16.17;11.38;;;;;;;19.16;42.43;99408.28;1782538;80;27391;-51
2023/04/12 14:12:37;;;;;;;16.40;11.10;;;;;;;19.32;42.81;99402.42;1760451;80;25615;-49
2023/04/12 14:15:06;;;;;;;16.45;11.33;;;;;;;19.48;42.09;99399.89;1782555;80;25380;-49